createdAt,value
2022-08-05T00:01:35.459Z,4.70
2022-08-05T00:04:08.173Z,3.60
2022-08-05T00:06:37.857Z,6.53
2022-08-05T00:09:12.868Z,3.03
2022-08-05T00:11:49.469Z,2.45
2022-08-05T00:14:27.485Z,3.80
2022-08-05T00:16:57.221Z,2.80
2022-08-05T00:19:40.641Z,3.35
2022-08-05T00:22:15.148Z,3.72
2022-08-05T00:24:46.087Z,3.78
2022-08-05T00:27:36.326Z,6.93
2022-08-05T00:30:11.296Z,4.60
2022-08-05T00:32:40.569Z,4.95
2022-08-05T00:35:09.686Z,3.42
2022-08-05T00:37:52.384Z,6.28
2022-08-05T00:40:26.723Z,4.18
2022-08-05T00:42:57.590Z,4.43
2022-08-05T00:45:38.057Z,4.57
2022-08-05T00:48:10.062Z,3.80
2022-08-05T00:50:38.990Z,5.18
2022-08-05T00:54:00.707Z,6.72
2022-08-05T00:55:59.696Z,3.50
2022-08-05T00:58:28.257Z,3.85
2022-08-05T01:00:56.478Z,4.93
2022-08-05T01:03:31.028Z,4.40
2022-08-05T01:06:03.779Z,4.07
2022-08-05T01:08:42.834Z,3.78
2022-08-05T01:11:22.495Z,4.13
2022-08-05T01:14:01.181Z,3.78
2022-08-05T01:16:34.793Z,5.78
2022-08-05T01:19:14.157Z,3.35
2022-08-05T01:22:27.987Z,4.45
2022-08-05T01:25:10.080Z,5.22
2022-08-05T01:28:14.312Z,6.60
2022-08-05T01:30:53.728Z,5.30
2022-08-05T01:33:35.500Z,5.13
2022-08-05T01:36:13.135Z,5.68
2022-08-05T01:38:46.402Z,4.40
2022-08-05T01:41:22.034Z,5.22
2022-08-05T01:43:53.157Z,4.80
2022-08-05T01:46:41.482Z,3.85
2022-08-05T01:49:23.054Z,4.28
2022-08-05T01:51:56.240Z,3.60
2022-08-05T01:54:31.137Z,7.88
2022-08-05T01:58:12.247Z,3.67
2022-08-05T01:59:52.632Z,4.90
2022-08-05T02:02:28.420Z,8.15
2022-08-05T02:04:59.366Z,4.63
2022-08-05T02:07:30.461Z,6.03
2022-08-05T02:09:58.950Z,6.55
2022-08-05T02:12:35.754Z,10.70
2022-08-05T02:15:12.407Z,4.47
2022-08-05T02:18:32.146Z,3.55
2022-08-05T02:20:48.569Z,8.38
2022-08-05T02:23:21.691Z,5.90
2022-08-05T02:25:52.044Z,6.38
2022-08-05T02:28:28.633Z,5.90
2022-08-05T02:31:04.118Z,7.30
2022-08-05T02:33:38.472Z,5.95
2022-08-05T02:36:10.312Z,5.63
2022-08-05T02:38:43.796Z,10.52
2022-08-05T02:41:22.957Z,6.95
2022-08-05T02:44:02.443Z,8.98
2022-08-05T02:46:53.738Z,7.07
2022-08-05T02:49:27.209Z,7.32
2022-08-05T02:52:06.833Z,7.95
2022-08-05T02:54:37.423Z,12.35
2022-08-05T02:57:09.881Z,10.10
2022-08-05T02:59:56.277Z,9.25
2022-08-05T03:02:29.908Z,4.35
2022-08-05T03:05:00.105Z,8.73
2022-08-05T03:08:00.937Z,11.27
2022-08-05T03:10:21.841Z,6.60
2022-08-05T03:12:53.940Z,9.50
2022-08-05T03:15:23.477Z,8.63
2022-08-05T03:17:55.553Z,8.85
2022-08-05T03:20:24.920Z,11.55
2022-08-05T03:22:55.376Z,10.10
2022-08-05T03:25:32.809Z,9.02
2022-08-05T03:28:18.648Z,9.48
2022-08-05T03:30:49.187Z,18.85
2022-08-05T03:33:19.385Z,9.48
2022-08-05T03:35:48.285Z,8.02
2022-08-05T03:38:32.664Z,7.53
2022-08-05T03:41:08.445Z,5.03
2022-08-05T03:44:09.637Z,7.18
2022-08-05T03:46:29.764Z,8.40
2022-08-05T03:48:59.774Z,8.65
2022-08-05T03:52:37.710Z,6.50
2022-08-05T03:56:09.851Z,10.15
2022-08-05T03:57:21.876Z,11.18
2022-08-05T04:00:12.566Z,4.75
2022-08-05T04:02:57.943Z,8.98
2022-08-05T04:05:33.963Z,4.68
2022-08-05T04:08:05.819Z,6.28
2022-08-05T04:10:53.055Z,8.48
2022-08-05T04:13:21.675Z,13.40
2022-08-05T04:16:02.816Z,6.38
2022-08-05T04:18:32.258Z,11.48
2022-08-05T04:21:05.417Z,8.50
2022-08-05T04:24:05.147Z,7.10
2022-08-05T04:26:23.549Z,5.25
2022-08-05T04:28:52.131Z,11.43
2022-08-05T04:31:20.503Z,7.32
2022-08-05T04:34:19.302Z,9.55
2022-08-05T04:36:45.576Z,9.13
2022-08-05T04:39:17.656Z,11.55
2022-08-05T04:41:48.167Z,6.38
2022-08-05T04:44:29.079Z,8.18
2022-08-05T04:46:58.574Z,8.13
2022-08-05T04:49:38.619Z,9.73
2022-08-05T04:52:16.608Z,7.45
2022-08-05T04:54:44.753Z,5.70
2022-08-05T04:57:12.757Z,5.40
2022-08-05T04:59:41.135Z,10.88
2022-08-05T05:02:37.593Z,8.07
2022-08-05T05:05:02.780Z,6.72
2022-08-05T05:07:35.666Z,6.70
2022-08-05T05:10:06.276Z,18.08
2022-08-05T05:12:36.718Z,11.30
2022-08-05T05:15:10.900Z,10.15
2022-08-05T05:17:56.672Z,5.20
2022-08-05T05:20:28.507Z,6.53
2022-08-05T05:22:58.564Z,5.22
2022-08-05T05:25:40.345Z,6.28
2022-08-05T05:28:09.313Z,6.57
2022-08-05T05:30:37.926Z,7.22
2022-08-05T05:33:15.934Z,5.25
2022-08-05T05:35:48.038Z,6.93
2022-08-05T05:38:27.200Z,7.85
2022-08-05T05:40:57.035Z,8.32
2022-08-05T05:43:57.246Z,6.47
2022-08-05T05:46:17.345Z,7.95
2022-08-05T05:48:47.862Z,7.60
2022-08-05T05:51:21.419Z,4.53
2022-08-05T05:53:58.367Z,6.20
2022-08-05T05:56:32.984Z,5.18
2022-08-05T05:59:05.086Z,7.95
2022-08-05T06:01:37.074Z,10.80
2022-08-05T06:04:08.121Z,6.80
2022-08-05T06:06:37.060Z,13.30
2022-08-05T06:09:17.389Z,7.95
2022-08-05T06:12:01.747Z,12.48
2022-08-05T06:14:33.270Z,8.23
2022-08-05T06:17:21.728Z,6.68
2022-08-05T06:19:56.831Z,7.60
2022-08-05T06:22:29.867Z,8.65
2022-08-05T06:24:59.888Z,8.77
2022-08-05T06:28:12.713Z,8.15
2022-08-05T06:30:19.937Z,8.45
2022-08-05T06:32:50.633Z,6.32
2022-08-05T06:36:02.926Z,12.23
2022-08-05T06:38:10.113Z,9.10
2022-08-05T06:40:42.263Z,12.07
2022-08-05T06:43:58.457Z,10.07
2022-08-05T06:46:06.642Z,9.82
2022-08-05T06:48:56.379Z,8.95
2022-08-05T06:51:30.014Z,11.77
2022-08-05T06:53:59.375Z,10.13
2022-08-05T06:56:30.143Z,9.05
2022-08-05T06:59:01.660Z,8.85
2022-08-05T07:01:32.183Z,6.63
2022-08-05T07:04:03.139Z,10.93
2022-08-05T07:06:31.889Z,12.25
2022-08-05T07:09:04.194Z,6.53
2022-08-05T07:11:37.125Z,8.98
2022-08-05T07:14:29.808Z,9.82
2022-08-05T07:18:01.400Z,7.72
2022-08-05T07:22:41.954Z,5.53
2022-08-05T07:25:54.085Z,9.25
2022-08-05T07:28:07.253Z,6.07
2022-08-05T07:30:39.746Z,6.72
2022-08-05T07:33:16.496Z,6.65
2022-08-05T07:36:03.567Z,6.07
2022-08-05T07:38:42.660Z,6.60
2022-08-05T07:42:06.863Z,7.38
2022-08-05T07:44:03.983Z,5.72
2022-08-05T07:46:36.281Z,6.88
2022-08-05T07:49:07.835Z,4.47
2022-08-05T07:51:40.882Z,6.13
2022-08-05T07:54:18.701Z,7.80
2022-08-05T07:57:01.717Z,7.82
2022-08-05T07:59:39.725Z,5.05
2022-08-05T08:02:16.232Z,5.13
2022-08-05T08:04:48.211Z,4.35
2022-08-05T08:07:17.941Z,5.70
2022-08-05T08:09:46.597Z,5.18
2022-08-05T08:12:35.397Z,7.18
2022-08-05T08:15:09.733Z,6.10
2022-08-05T08:17:50.789Z,7.30
2022-08-05T08:20:43.532Z,5.70
2022-08-05T08:23:11.728Z,4.82
2022-08-05T08:26:00.107Z,3.53
2022-08-05T08:28:36.155Z,4.63
2022-08-05T08:31:07.931Z,2.95
2022-08-05T08:33:37.897Z,5.93
2022-08-05T08:36:39.263Z,6.60
2022-08-05T08:38:56.993Z,4.47
2022-08-05T08:41:51.091Z,5.40
2022-08-05T08:45:22.578Z,6.45
2022-08-05T08:47:47.179Z,3.85
2022-08-05T08:50:06.197Z,3.47
2022-08-05T08:52:51.733Z,4.40
2022-08-05T08:56:03.140Z,4.05
2022-08-05T08:58:12.926Z,5.07
2022-08-05T09:00:42.926Z,3.25
2022-08-05T09:03:16.159Z,7.43
2022-08-05T09:06:09.233Z,2.92
2022-08-05T09:08:40.050Z,5.05
2022-08-05T09:11:13.717Z,4.53
2022-08-05T09:14:00.992Z,6.30
2022-08-05T09:16:31.055Z,6.72
2022-08-05T09:19:00.559Z,9.38
2022-08-05T09:22:22.888Z,5.90
2022-08-05T09:24:18.330Z,5.50
2022-08-05T09:26:52.499Z,4.05
2022-08-05T09:29:20.774Z,3.33
2022-08-05T09:32:41.921Z,3.72
2022-08-05T09:34:56.021Z,6.65
2022-08-05T09:38:16.403Z,4.43
2022-08-05T09:40:30.966Z,4.43
2022-08-05T09:43:01.171Z,3.33
2022-08-05T09:46:06.524Z,5.25
2022-08-05T09:48:30.061Z,4.13
2022-08-05T09:51:01.932Z,6.78
2022-08-05T09:53:54.062Z,3.05
2022-08-05T09:56:27.070Z,3.42
2022-08-05T09:59:04.037Z,5.22
2022-08-05T10:01:35.185Z,3.38
2022-08-05T10:04:11.043Z,3.58
2022-08-05T10:06:54.773Z,4.72
2022-08-05T10:09:28.153Z,5.10
2022-08-05T10:16:52.760Z,3.28
2022-08-05T10:20:02.714Z,4.10
2022-08-05T10:22:30.098Z,3.65
2022-08-05T10:24:59.154Z,4.28
2022-08-05T10:28:09.651Z,2.97
2022-08-05T10:31:20.213Z,6.80
2022-08-05T10:33:14.890Z,3.28
2022-08-05T10:35:59.231Z,5.63
2022-08-05T10:38:33.188Z,4.30
2022-08-05T10:41:07.930Z,2.90
2022-08-05T10:43:59.267Z,2.60
2022-08-05T10:47:31.289Z,2.70
2022-08-05T10:50:36.470Z,3.55
2022-08-05T10:53:06.829Z,3.53
2022-08-05T11:00:03.157Z,5.18
2022-08-05T11:02:51.553Z,5.00
2022-08-05T11:05:49.916Z,2.97
2022-08-05T11:08:39.121Z,3.72
2022-08-05T11:26:29.181Z,4.57
2022-08-05T11:29:13.385Z,4.72
2022-08-05T11:32:25.660Z,2.60
2022-08-05T11:34:54.240Z,5.13
2022-08-05T11:38:26.390Z,5.07
2022-08-05T11:46:27.088Z,4.30
2022-08-05T11:48:39.853Z,3.53
2022-08-05T11:59:41.224Z,3.55
2022-08-05T12:02:30.057Z,2.88
2022-08-05T12:05:07.175Z,2.00
2022-08-05T12:15:49.983Z,2.67
2022-08-05T12:18:59.085Z,4.38
2022-08-05T12:24:50.683Z,3.80
2022-08-05T12:27:53.066Z,3.85
2022-08-05T12:30:47.284Z,4.95
2022-08-05T12:33:27.544Z,4.50
2022-08-05T12:36:38.859Z,4.97
2022-08-05T12:40:10.719Z,3.15
2022-08-05T12:47:25.455Z,3.25
2022-08-05T12:52:10.580Z,3.38
2022-08-05T12:54:16.556Z,3.03
2022-08-05T12:56:54.513Z,2.60
2022-08-05T12:59:27.585Z,2.42
2022-08-05T13:02:14.290Z,3.00
2022-08-05T13:04:52.585Z,4.43
2022-08-05T13:07:47.798Z,4.25
2022-08-05T13:10:19.755Z,3.10
2022-08-05T13:12:57.108Z,4.07
2022-08-05T13:15:41.241Z,2.95
2022-08-05T13:18:19.411Z,6.72
2022-08-05T13:23:55.474Z,3.58
2022-08-05T13:26:29.901Z,6.43
2022-08-05T13:29:03.205Z,4.65
2022-08-05T13:32:03.911Z,3.47
2022-08-05T13:34:27.617Z,5.53
2022-08-05T13:37:04.263Z,4.45
2022-08-05T13:40:16.783Z,3.20
2022-08-05T13:52:29.166Z,5.00
2022-08-05T13:55:07.354Z,3.33
2022-08-05T13:57:51.203Z,3.15
2022-08-05T14:00:26.825Z,6.45
2022-08-05T14:02:56.828Z,4.53
2022-08-05T14:10:11.742Z,2.88
2022-08-05T14:20:07.587Z,4.10
2022-08-05T14:22:39.777Z,4.63
2022-08-05T14:25:28.075Z,4.63
2022-08-05T14:28:01.340Z,4.15
2022-08-05T14:30:29.920Z,2.97
2022-08-05T14:32:59.611Z,2.67
2022-08-05T14:38:52.437Z,2.35
2022-08-05T14:41:22.361Z,5.25
2022-08-05T14:44:01.666Z,4.18
2022-08-05T14:46:42.399Z,4.68
2022-08-05T14:50:17.371Z,2.72
2022-08-05T14:53:44.853Z,2.92
2022-08-05T14:57:02.678Z,3.00
2022-08-05T14:59:39.540Z,2.70
2022-08-05T15:13:00.868Z,4.22
2022-08-05T15:15:54.885Z,5.65
2022-08-05T15:18:22.971Z,3.83
2022-08-05T15:20:51.348Z,2.67
2022-08-05T15:23:19.547Z,6.65
2022-08-05T15:25:52.279Z,3.75
2022-08-05T15:28:27.295Z,4.00
2022-08-05T15:30:57.702Z,4.53
2022-08-05T15:34:05.324Z,3.45
2022-08-05T15:36:17.497Z,6.43
2022-08-05T15:40:59.658Z,4.90
2022-08-05T15:41:55.858Z,4.88
2022-08-05T15:44:51.813Z,8.15
2022-08-05T16:07:13.578Z,6.70
2022-08-05T16:09:44.078Z,5.88
2022-08-05T16:12:12.267Z,5.70
2022-08-05T16:22:52.597Z,5.47
2022-08-05T16:29:50.425Z,6.07
2022-08-05T16:44:57.037Z,5.63
2022-08-05T16:58:35.560Z,5.50
2022-08-05T17:01:06.608Z,4.25
2022-08-05T17:03:38.934Z,4.25
2022-08-05T17:06:08.029Z,3.90
2022-08-05T17:08:54.896Z,5.85
2022-08-05T17:22:46.004Z,3.47
2022-08-05T17:26:12.671Z,3.72
2022-08-05T17:28:43.328Z,4.53
2022-08-05T17:31:24.414Z,4.55
2022-08-05T17:34:12.303Z,5.57
2022-08-05T17:40:32.346Z,4.03
2022-08-05T17:47:11.632Z,3.45
2022-08-05T17:49:59.715Z,7.20
2022-08-05T17:52:31.619Z,4.65
2022-08-05T17:55:49.037Z,3.40
2022-08-05T18:02:24.180Z,5.75
2022-08-05T18:05:00.529Z,4.97
2022-08-05T18:07:41.724Z,4.15
2022-08-05T18:10:14.049Z,4.05
2022-08-05T18:12:49.523Z,4.80
2022-08-05T18:15:17.871Z,6.00
2022-08-05T18:17:58.959Z,4.13
2022-08-05T18:21:13.334Z,6.13
2022-08-05T18:27:52.440Z,5.18
2022-08-05T18:30:20.976Z,3.78
2022-08-05T18:32:53.383Z,4.32
2022-08-05T18:36:01.398Z,4.20
2022-08-05T18:38:26.028Z,5.72
2022-08-05T18:41:57.469Z,4.28
2022-08-05T18:43:48.771Z,4.30
2022-08-05T18:46:20.201Z,3.60
2022-08-05T18:48:52.799Z,8.13
2022-08-05T18:52:04.053Z,4.53
2022-08-05T18:54:28.365Z,4.82
2022-08-05T18:57:09.864Z,4.32
2022-08-05T19:00:02.940Z,4.18
2022-08-05T19:06:45.339Z,5.45
2022-08-05T19:12:28.368Z,4.97
2022-08-05T19:15:00.831Z,8.80
2022-08-05T19:17:58.288Z,7.70
2022-08-05T19:20:18.999Z,7.10
2022-08-05T19:22:51.064Z,8.77
2022-08-05T19:25:29.588Z,7.95
2022-08-05T19:27:59.864Z,8.52
2022-08-05T19:30:33.436Z,11.13
2022-08-05T19:33:05.132Z,7.03
2022-08-05T19:35:56.444Z,8.13
2022-08-05T19:38:26.646Z,9.32
2022-08-05T19:40:55.076Z,9.20
2022-08-05T19:44:04.879Z,8.93
2022-08-05T19:46:29.024Z,10.38
2022-08-05T19:49:02.852Z,9.23
2022-08-05T19:52:05.132Z,9.45
2022-08-05T19:54:26.799Z,10.10
2022-08-05T19:56:59.823Z,11.30
2022-08-05T19:59:55.505Z,12.15
2022-08-05T20:02:26.183Z,12.73
2022-08-05T20:04:58.854Z,10.80
2022-08-05T20:07:46.911Z,12.25
2022-08-05T20:11:18.088Z,11.88
2022-08-05T20:17:35.314Z,13.43
2022-08-05T20:20:11.150Z,13.82
2022-08-05T20:22:41.458Z,15.82
2022-08-05T20:25:18.424Z,13.55
2022-08-05T20:27:46.835Z,12.45
2022-08-05T20:30:23.713Z,14.57
2022-08-05T20:33:15.765Z,13.45
2022-08-05T20:39:45.191Z,11.95
2022-08-05T20:42:21.783Z,12.77
2022-08-05T20:44:50.093Z,12.88
2022-08-05T20:47:18.564Z,13.88
2022-08-05T20:49:51.320Z,13.15
2022-08-05T20:52:19.528Z,15.02
2022-08-05T20:54:59.662Z,14.32
2022-08-05T20:57:47.829Z,12.30
2022-08-05T21:00:34.944Z,17.02
2022-08-05T21:03:08.058Z,17.65
2022-08-05T21:05:53.606Z,28.17
2022-08-05T21:08:26.676Z,24.55
2022-08-05T21:11:01.737Z,22.13
2022-08-05T21:13:48.319Z,23.00
2022-08-05T21:16:29.641Z,24.27
2022-08-05T21:19:00.356Z,21.63
2022-08-05T21:21:38.970Z,21.67
2022-08-05T21:24:15.433Z,23.77
2022-08-05T21:26:50.565Z,23.20
2022-08-05T21:29:31.266Z,20.60
2022-08-05T21:32:00.905Z,23.65
2022-08-05T21:34:28.975Z,19.83
2022-08-05T21:37:01.649Z,23.75
2022-08-05T21:39:30.266Z,18.55
2022-08-05T21:42:02.778Z,21.75
2022-08-05T21:44:31.800Z,22.08
2022-08-05T21:47:00.277Z,18.20
2022-08-05T21:49:48.279Z,20.70
2022-08-05T21:52:27.328Z,18.85
2022-08-05T21:54:56.549Z,19.92
2022-08-05T21:57:32.552Z,23.52
2022-08-05T22:00:06.238Z,18.67
2022-08-05T22:02:35.121Z,18.90
2022-08-05T22:05:04.308Z,17.20
2022-08-05T22:07:40.352Z,18.90
2022-08-05T22:10:25.521Z,16.65
2022-08-05T22:12:57.528Z,17.40
2022-08-05T22:16:01.060Z,16.77
2022-08-05T22:18:15.832Z,18.50
2022-08-05T22:20:47.752Z,15.55
2022-08-05T22:24:00.831Z,17.88
2022-08-05T22:26:50.012Z,15.60
2022-08-05T22:29:26.309Z,17.55
2022-08-05T22:31:59.565Z,15.05
2022-08-05T22:34:31.308Z,14.70
2022-08-05T22:37:00.589Z,14.30
2022-08-05T22:39:34.556Z,14.25
2022-08-05T22:42:09.493Z,13.32
2022-08-05T22:44:56.352Z,14.07
2022-08-05T22:47:30.106Z,16.20
2022-08-05T22:50:19.595Z,12.75
2022-08-05T22:52:48.085Z,13.73
2022-08-05T22:55:21.105Z,12.90
2022-08-05T22:57:50.456Z,13.43
2022-08-05T23:00:43.614Z,9.65
2022-08-05T23:03:13.747Z,13.00
2022-08-05T23:05:42.129Z,10.13
2022-08-05T23:08:12.360Z,11.73
2022-08-05T23:10:46.054Z,10.13
2022-08-05T23:13:14.555Z,8.70
2022-08-05T23:15:42.797Z,10.25
2022-08-05T23:18:11.574Z,8.57
2022-08-05T23:20:43.976Z,7.57
2022-08-05T23:23:12.353Z,9.52
2022-08-05T23:25:51.905Z,5.95
2022-08-05T23:28:27.675Z,6.32
2022-08-05T23:31:16.119Z,5.93
2022-08-05T23:34:03.781Z,4.97
2022-08-05T23:36:39.729Z,7.00
2022-08-05T23:39:17.244Z,5.03
2022-08-05T23:41:52.259Z,6.43
2022-08-05T23:44:25.104Z,5.03
2022-08-05T23:46:56.162Z,4.20
2022-08-05T23:49:35.796Z,3.65
2022-08-05T23:52:21.984Z,5.35
2022-08-05T23:54:54.614Z,3.45
2022-08-05T23:57:24.393Z,4.93
